createdAt,value
2023-01-01T00:00:44.185Z,29.63
2023-01-01T00:03:11.293Z,35.75
2023-01-01T00:05:38.916Z,39.78
2023-01-01T00:08:06.014Z,41.50
2023-01-01T00:10:33.320Z,40.00
2023-01-01T00:13:00.722Z,21.60
2023-01-01T00:15:28.303Z,23.38
2023-01-01T00:17:56.051Z,24.60
2023-01-01T00:20:23.376Z,22.50
2023-01-01T00:22:55.545Z,20.95
2023-01-01T00:25:23.865Z,28.80
2023-01-01T00:27:51.137Z,23.02
2023-01-01T00:30:18.333Z,22.50
2023-01-01T00:32:55.375Z,20.13
2023-01-01T00:35:25.314Z,20.58
2023-01-01T00:37:53.717Z,18.65
2023-01-01T00:40:20.855Z,18.92
2023-01-01T00:42:47.945Z,20.17
2023-01-01T00:45:20.975Z,21.70
2023-01-01T00:47:51.641Z,13.67
2023-01-01T00:50:20.274Z,14.15
2023-01-01T00:52:48.982Z,16.95
2023-01-01T00:55:16.238Z,20.93
2023-01-01T00:57:43.285Z,15.45
2023-01-01T01:00:11.247Z,18.83
2023-01-01T01:02:38.445Z,18.17
2023-01-01T01:05:06.505Z,14.13
2023-01-01T01:07:36.286Z,15.23
2023-01-01T01:10:03.655Z,14.02
2023-01-01T01:12:30.733Z,12.40
2023-01-01T01:14:57.795Z,14.00
2023-01-01T01:17:24.854Z,14.50
2023-01-01T01:19:51.929Z,17.73
2023-01-01T01:22:24.256Z,19.42
2023-01-01T01:24:54.993Z,20.73
2023-01-01T01:27:22.053Z,13.98
2023-01-01T01:29:49.109Z,12.55
2023-01-01T01:32:16.238Z,14.80
2023-01-01T01:34:43.290Z,11.30
2023-01-01T01:37:10.394Z,9.87
2023-01-01T01:39:38.113Z,14.27
2023-01-01T01:42:05.585Z,9.38
2023-01-01T01:45:02.106Z,12.70
2023-01-01T01:47:58.851Z,11.07
2023-01-01T01:50:28.578Z,11.75
2023-01-01T01:53:03.851Z,7.72
2023-01-01T01:55:35.065Z,8.60
2023-01-01T01:58:03.406Z,8.55
2023-01-01T02:00:33.519Z,32.33
2023-01-01T02:03:06.349Z,21.52
2023-01-01T02:05:35.337Z,21.33
2023-01-01T02:08:04.867Z,22.20
2023-01-01T02:10:32.764Z,25.05
2023-01-01T02:13:00.415Z,21.58
2023-01-01T02:15:50.744Z,17.07
2023-01-01T02:18:25.737Z,17.17
2023-01-01T02:21:21.428Z,14.05
2023-01-01T02:24:17.861Z,12.10
2023-01-01T02:26:58.101Z,12.88
2023-01-01T02:29:32.047Z,17.77
2023-01-01T02:32:19.247Z,12.20
2023-01-01T02:35:21.485Z,12.98
2023-01-01T02:37:52.904Z,11.25
2023-01-01T02:40:22.803Z,10.23
2023-01-01T02:42:50.724Z,10.95
2023-01-01T02:45:17.857Z,13.20
2023-01-01T02:47:44.999Z,12.35
2023-01-01T02:50:16.556Z,9.88
2023-01-01T02:53:12.014Z,12.27
2023-01-01T02:55:48.156Z,9.73
2023-01-01T02:58:56.299Z,9.30
2023-01-01T03:01:34.285Z,8.38
2023-01-01T03:04:17.339Z,15.88
2023-01-01T03:07:09.350Z,11.82
2023-01-01T03:09:45.620Z,12.73
2023-01-01T03:12:39.693Z,12.15
2023-01-01T03:15:21.995Z,8.47
2023-01-01T03:18:07.446Z,7.30
2023-01-01T03:20:40.129Z,8.68
2023-01-01T03:23:15.938Z,7.05
2023-01-01T03:25:49.898Z,5.97
2023-01-01T03:28:23.829Z,8.63
2023-01-01T03:30:53.395Z,10.20
2023-01-01T03:33:39.068Z,12.70
2023-01-01T03:36:09.257Z,7.47
2023-01-01T03:39:02.040Z,4.95
2023-01-01T03:41:40.559Z,12.10
2023-01-01T03:44:11.479Z,16.80
2023-01-01T03:46:39.121Z,11.18
2023-01-01T03:49:09.947Z,15.57
2023-01-01T03:52:05.122Z,11.98
2023-01-01T03:55:00.249Z,7.50
2023-01-01T03:57:36.670Z,8.57
2023-01-01T04:00:08.706Z,7.50
2023-01-01T04:03:06.758Z,9.77
2023-01-01T04:05:38.819Z,12.70
2023-01-01T04:08:07.076Z,14.10
2023-01-01T04:10:38.904Z,20.13
2023-01-01T04:13:06.586Z,12.93
2023-01-01T04:15:35.965Z,14.35
2023-01-01T04:18:04.051Z,11.95
2023-01-01T04:20:34.203Z,13.13
2023-01-01T04:23:02.126Z,13.37
2023-01-01T04:25:29.748Z,9.30
2023-01-01T04:27:58.315Z,8.15
2023-01-01T04:30:26.683Z,5.15
2023-01-01T04:32:55.238Z,8.85
2023-01-01T04:35:22.320Z,9.00
2023-01-01T04:37:49.376Z,6.00
2023-01-01T04:40:16.496Z,5.75
2023-01-01T04:42:43.585Z,6.93
2023-01-01T04:45:14.759Z,6.88
2023-01-01T04:47:41.947Z,12.55
2023-01-01T04:50:09.348Z,10.80
2023-01-01T04:52:37.508Z,9.77
2023-01-01T04:55:04.964Z,9.20
2023-01-01T04:57:32.439Z,10.68
2023-01-01T04:59:59.534Z,19.75
2023-01-01T05:02:27.244Z,19.42
2023-01-01T05:04:54.490Z,15.07
2023-01-01T05:07:21.602Z,25.45
2023-01-01T05:09:48.647Z,18.38
2023-01-01T05:12:15.774Z,18.60
2023-01-01T05:14:42.855Z,17.73
2023-01-01T05:17:09.897Z,10.48
2023-01-01T05:19:36.996Z,10.25
2023-01-01T05:22:10.135Z,13.80
2023-01-01T05:24:37.670Z,9.10
2023-01-01T05:27:04.780Z,9.27
2023-01-01T05:29:31.835Z,7.15
2023-01-01T05:31:59.023Z,6.85
2023-01-01T05:34:27.185Z,7.75
2023-01-01T05:36:54.244Z,10.45
2023-01-01T05:39:21.348Z,11.57
2023-01-01T05:41:48.414Z,12.38
2023-01-01T05:44:17.184Z,8.68
2023-01-01T05:46:44.251Z,8.30
2023-01-01T05:49:12.032Z,13.60
2023-01-01T05:54:05.561Z,7.00
2023-01-01T05:56:32.644Z,8.17
2023-01-01T05:58:59.696Z,8.20
2023-01-01T06:01:28.984Z,8.93
2023-01-01T06:03:57.874Z,6.38
2023-01-01T06:06:28.701Z,5.50
2023-01-01T06:09:02.133Z,8.90
2023-01-01T06:11:30.088Z,10.23
2023-01-01T06:13:59.360Z,7.05
2023-01-01T06:16:28.096Z,4.45
2023-01-01T06:18:55.393Z,5.57
2023-01-01T06:21:25.204Z,5.50
2023-01-01T06:23:52.922Z,5.63
2023-01-01T06:26:23.075Z,43.95
2023-01-01T06:28:50.948Z,13.43
2023-01-01T06:31:20.935Z,11.50
2023-01-01T06:33:49.301Z,18.35
2023-01-01T06:36:18.008Z,10.18
2023-01-01T06:38:47.340Z,12.82
2023-01-01T06:41:20.024Z,14.43
2023-01-01T06:43:47.357Z,13.65
2023-01-01T06:46:35.408Z,17.35
2023-01-01T06:49:10.958Z,12.70
2023-01-01T06:51:40.617Z,12.37
2023-01-01T06:54:08.809Z,9.98
2023-01-01T06:56:36.232Z,18.10
2023-01-01T06:59:04.056Z,16.02
2023-01-01T07:01:33.676Z,17.23
2023-01-01T07:04:03.462Z,19.02
2023-01-01T07:06:32.034Z,20.17
2023-01-01T07:08:59.179Z,16.88
2023-01-01T07:11:26.726Z,15.83
2023-01-01T07:13:54.564Z,13.52
2023-01-01T07:16:23.094Z,17.45
2023-01-01T07:18:50.740Z,21.13
2023-01-01T07:21:32.476Z,29.25
2023-01-01T07:24:01.355Z,26.95
2023-01-01T07:26:30.006Z,24.43
2023-01-01T07:29:05.988Z,23.95
2023-01-01T07:31:36.085Z,18.38
2023-01-01T07:34:03.423Z,14.00
2023-01-01T07:36:30.577Z,14.67
2023-01-01T07:38:57.667Z,14.87
2023-01-01T07:41:24.751Z,14.27
2023-01-01T07:43:51.892Z,13.02
2023-01-01T07:46:19.273Z,11.30
2023-01-01T07:48:46.574Z,10.65
2023-01-01T07:51:13.751Z,8.57
2023-01-01T07:53:40.805Z,10.13
2023-01-01T07:56:08.426Z,8.85
2023-01-01T07:58:38.645Z,7.75
2023-01-01T08:01:05.760Z,7.60
2023-01-01T08:03:32.898Z,17.17
2023-01-01T08:05:59.993Z,12.95
2023-01-01T08:08:27.037Z,16.30
2023-01-01T08:10:56.615Z,15.52
2023-01-01T08:13:27.356Z,22.63
2023-01-01T08:15:55.561Z,15.82
2023-01-01T08:18:22.744Z,29.38
2023-01-01T08:20:49.800Z,22.58
2023-01-01T08:23:16.846Z,26.65
2023-01-01T08:25:43.904Z,24.55
2023-01-01T08:28:10.941Z,18.35
2023-01-01T08:30:38.017Z,23.33
2023-01-01T08:33:05.062Z,17.43
2023-01-01T08:35:32.228Z,11.93
2023-01-01T08:37:59.289Z,13.88
2023-01-01T08:40:26.349Z,10.52
2023-01-01T08:42:53.398Z,13.45
2023-01-01T08:45:20.525Z,17.48
2023-01-01T08:47:47.652Z,31.83
2023-01-01T08:50:14.792Z,46.65
2023-01-01T08:52:41.861Z,35.55
2023-01-01T08:55:09.389Z,20.85
2023-01-01T08:57:36.477Z,20.75
2023-01-01T09:00:04.512Z,38.88
2023-01-01T09:02:32.013Z,36.83
2023-01-01T09:04:59.177Z,32.65
2023-01-01T09:07:26.241Z,31.50
2023-01-01T09:09:53.329Z,26.25
2023-01-01T09:12:20.398Z,28.65
2023-01-01T09:14:47.970Z,23.00
2023-01-01T09:17:15.213Z,16.15
2023-01-01T09:19:42.307Z,16.30
2023-01-01T09:22:11.010Z,19.50
2023-01-01T09:24:38.288Z,26.70
2023-01-01T09:27:05.684Z,21.80
2023-01-01T09:29:32.863Z,16.83
2023-01-01T09:32:00.047Z,20.25
2023-01-01T09:34:27.326Z,24.00
2023-01-01T09:36:54.419Z,14.13
2023-01-01T09:39:21.518Z,19.33
2023-01-01T09:42:16.927Z,18.05
2023-01-01T09:45:15.303Z,16.15
2023-01-01T09:47:53.335Z,10.90
2023-01-01T09:50:23.339Z,11.00
2023-01-01T09:53:00.536Z,9.93
2023-01-01T09:56:00.556Z,9.02
2023-01-01T09:58:32.030Z,7.25
2023-01-01T10:01:10.264Z,6.00
2023-01-01T10:03:46.092Z,8.05
2023-01-01T10:06:27.454Z,8.68
2023-01-01T10:09:00.104Z,5.35
2023-01-01T10:11:44.276Z,6.13
2023-01-01T10:14:35.228Z,6.25
2023-01-01T10:17:06.398Z,9.25
2023-01-01T10:19:47.979Z,8.73
2023-01-01T10:22:24.071Z,17.75
2023-01-01T10:24:51.092Z,16.70
2023-01-01T10:27:38.929Z,14.80
2023-01-01T10:30:25.059Z,16.17
2023-01-01T10:32:54.628Z,9.05
2023-01-01T10:35:30.016Z,9.10
2023-01-01T10:37:59.771Z,8.73
2023-01-01T10:40:28.483Z,6.90
2023-01-01T10:42:58.360Z,4.80
2023-01-01T10:45:31.783Z,4.47
2023-01-01T10:48:14.770Z,18.58
2023-01-01T10:50:50.197Z,13.88
2023-01-01T10:53:37.134Z,15.15
2023-01-01T10:56:12.007Z,15.90
2023-01-01T10:58:47.860Z,15.00
2023-01-01T11:01:18.171Z,22.52
2023-01-01T11:03:56.055Z,13.00
2023-01-01T11:06:25.008Z,10.00
2023-01-01T11:08:55.594Z,7.65
2023-01-01T11:11:31.024Z,8.43
2023-01-01T11:14:06.083Z,5.28
2023-01-01T11:16:33.609Z,5.40
2023-01-01T11:19:08.436Z,5.80
2023-01-01T11:21:35.877Z,8.55
2023-01-01T11:24:30.248Z,30.10
2023-01-01T11:27:25.206Z,10.68
2023-01-01T11:29:54.593Z,13.88
2023-01-01T11:32:31.149Z,10.27
2023-01-01T11:35:01.591Z,10.55
2023-01-01T11:37:38.606Z,12.40
2023-01-01T11:40:15.089Z,13.55
2023-01-01T11:42:47.658Z,13.00
2023-01-01T11:45:20.701Z,19.33
2023-01-01T11:47:55.565Z,31.70
2023-01-01T11:50:38.030Z,33.13
2023-01-01T11:53:23.391Z,22.40
2023-01-01T11:56:02.205Z,11.15
2023-01-01T11:58:37.932Z,9.80
2023-01-01T12:01:13.858Z,11.48
2023-01-01T12:03:56.187Z,7.80
2023-01-01T12:06:30.850Z,18.10
2023-01-01T12:09:24.236Z,39.20
2023-01-01T12:12:01.703Z,30.23
2023-01-01T12:14:51.961Z,27.65
2023-01-01T12:17:26.190Z,36.63
2023-01-01T12:20:01.361Z,40.55
2023-01-01T12:22:28.632Z,39.77
2023-01-01T12:24:57.127Z,58.65
2023-01-01T12:27:51.865Z,44.70
2023-01-01T12:30:27.342Z,36.38
2023-01-01T12:33:08.430Z,31.73
2023-01-01T12:35:50.738Z,27.88
2023-01-01T12:38:42.442Z,41.33
2023-01-01T12:41:36.313Z,32.90
2023-01-01T12:44:24.263Z,77.95
2023-01-01T12:47:04.301Z,60.85
2023-01-01T12:49:49.983Z,53.45
2023-01-01T12:52:22.826Z,29.60
2023-01-01T12:55:08.307Z,38.35
2023-01-01T12:57:49.062Z,44.00
2023-01-01T13:00:19.481Z,56.50
2023-01-01T13:02:51.932Z,54.73
2023-01-01T13:05:36.612Z,17.52
2023-01-01T13:08:05.058Z,61.83
2023-01-01T13:10:40.576Z,126.90
2023-01-01T13:13:07.898Z,33.03
2023-01-01T13:15:37.851Z,22.65
2023-01-01T13:18:26.810Z,17.10
2023-01-01T13:20:53.842Z,13.93
2023-01-01T13:23:34.481Z,19.52
2023-01-01T13:26:22.815Z,24.13
2023-01-01T13:28:58.845Z,9.63
2023-01-01T13:31:38.468Z,7.40
2023-01-01T13:34:30.579Z,17.10
2023-01-01T13:37:19.089Z,13.83
2023-01-01T13:40:21.849Z,13.07
2023-01-01T13:42:59.068Z,20.25
2023-01-01T13:46:12.980Z,15.30
2023-01-01T13:49:28.929Z,18.58
2023-01-01T13:52:23.776Z,19.15
2023-01-01T13:55:16.665Z,16.70
2023-01-01T13:58:11.725Z,44.47
2023-01-01T14:00:57.276Z,83.05
2023-01-01T14:03:27.174Z,45.22
2023-01-01T14:06:04.433Z,50.38
2023-01-01T14:08:34.286Z,46.38
2023-01-01T14:11:03.426Z,34.38
2023-01-01T14:13:38.913Z,29.42
2023-01-01T14:16:10.748Z,25.83
2023-01-01T14:18:45.094Z,18.80
2023-01-01T14:21:21.419Z,32.50
2023-01-01T14:23:55.414Z,30.35
2023-01-01T14:26:25.382Z,25.88
2023-01-01T14:28:57.520Z,55.55
2023-01-01T14:31:28.380Z,85.45
2023-01-01T14:33:55.775Z,36.45
2023-01-01T14:36:31.467Z,33.97
2023-01-01T14:39:00.743Z,27.33
2023-01-01T14:41:32.326Z,28.10
2023-01-01T14:44:09.993Z,17.67
2023-01-01T14:46:46.059Z,29.73
2023-01-01T14:49:22.604Z,36.05
2023-01-01T14:52:01.229Z,25.77
2023-01-01T14:54:40.828Z,23.90
2023-01-01T14:57:16.238Z,17.70
2023-01-01T14:59:56.311Z,17.10
2023-01-01T15:02:30.238Z,13.25
2023-01-01T15:04:58.720Z,9.38
2023-01-01T15:07:28.276Z,10.80
2023-01-01T15:10:00.261Z,11.65
2023-01-01T15:12:28.051Z,7.93
2023-01-01T15:14:56.356Z,7.97
2023-01-01T15:17:26.087Z,6.05
2023-01-01T15:20:19.574Z,8.10
2023-01-01T15:22:47.430Z,7.50
2023-01-01T15:25:16.475Z,6.57
2023-01-01T15:27:49.193Z,76.78
2023-01-01T15:30:33.657Z,56.55
2023-01-01T15:33:15.579Z,67.60
2023-01-01T15:35:48.281Z,41.97
2023-01-01T15:38:27.455Z,32.22
2023-01-01T15:40:54.559Z,24.33
2023-01-01T15:43:30.789Z,28.70
2023-01-01T15:46:00.882Z,23.05
2023-01-01T15:48:40.838Z,20.55
2023-01-01T15:51:22.408Z,14.55
2023-01-01T15:53:51.821Z,16.38
2023-01-01T15:56:20.678Z,14.10
2023-01-01T15:58:56.264Z,15.85
2023-01-01T16:01:36.070Z,14.65
2023-01-01T16:04:15.506Z,9.30
2023-01-01T16:06:51.204Z,11.23
2023-01-01T16:09:19.330Z,14.10
2023-01-01T16:11:51.258Z,14.02
2023-01-01T16:14:18.606Z,9.90
2023-01-01T16:16:57.878Z,14.52
2023-01-01T16:19:25.312Z,17.55
2023-01-01T16:21:52.719Z,9.43
2023-01-01T16:24:20.302Z,9.82
2023-01-01T16:26:47.963Z,9.83
2023-01-01T16:29:15.817Z,7.95
2023-01-01T16:31:43.709Z,8.00
2023-01-01T16:34:14.350Z,7.35
2023-01-01T16:36:42.330Z,8.83
2023-01-01T16:39:09.460Z,5.67
2023-01-01T16:41:39.287Z,5.03
2023-01-01T16:44:06.442Z,6.10
2023-01-01T16:46:33.696Z,4.70
2023-01-01T16:49:01.031Z,4.97
2023-01-01T16:51:29.656Z,4.38
2023-01-01T16:53:57.399Z,3.90
2023-01-01T16:56:24.513Z,4.57
2023-01-01T16:58:55.459Z,3.53
2023-01-01T17:01:29.250Z,3.88
2023-01-01T17:03:56.426Z,2.45
2023-01-01T17:06:23.479Z,4.67
2023-01-01T17:08:50.550Z,9.37
2023-01-01T17:11:18.678Z,12.23
2023-01-01T17:13:47.616Z,6.50
2023-01-01T17:16:21.398Z,8.87
2023-01-01T17:21:40.547Z,8.30
2023-01-01T17:24:07.871Z,8.27
2023-01-01T17:26:35.026Z,6.63
2023-01-01T17:29:03.528Z,6.22
2023-01-01T17:31:31.008Z,11.00
2023-01-01T17:33:58.148Z,6.85
2023-01-01T17:36:28.465Z,10.40
2023-01-01T17:38:55.955Z,14.63
2023-01-01T17:41:23.090Z,20.10
2023-01-01T17:43:51.669Z,8.38
2023-01-01T17:46:20.404Z,7.10
2023-01-01T17:48:48.932Z,8.65
2023-01-01T17:51:16.971Z,10.10
2023-01-01T17:53:44.297Z,11.87
2023-01-01T17:56:17.847Z,6.85
2023-01-01T17:58:46.101Z,6.35
2023-01-01T18:01:15.946Z,6.27
2023-01-01T18:03:43.168Z,5.73
2023-01-01T18:06:10.287Z,8.63
2023-01-01T18:08:37.479Z,8.60
2023-01-01T18:11:04.644Z,4.95
2023-01-01T18:13:32.611Z,4.60
2023-01-01T18:16:01.398Z,5.07
2023-01-01T18:18:30.745Z,4.53
2023-01-01T18:21:06.391Z,5.95
2023-01-01T18:23:39.668Z,3.88
2023-01-01T18:26:09.734Z,3.42
2023-01-01T18:28:37.554Z,4.05
2023-01-01T18:31:06.202Z,3.22
2023-01-01T18:33:34.194Z,4.10
2023-01-01T18:36:06.669Z,3.70
2023-01-01T18:38:34.534Z,3.22
2023-01-01T18:41:27.698Z,3.08
2023-01-01T18:43:55.616Z,3.15
2023-01-01T18:46:23.414Z,3.58
2023-01-01T18:48:54.014Z,2.37
2023-01-01T18:51:26.503Z,2.92
2023-01-01T18:53:57.576Z,7.07
2023-01-01T18:56:25.253Z,9.03
2023-01-01T18:58:56.848Z,8.07
2023-01-01T19:01:24.784Z,6.95
2023-01-01T19:03:56.142Z,12.35
2023-01-01T19:06:31.636Z,10.85
2023-01-01T19:09:19.807Z,11.10
2023-01-01T19:11:48.729Z,15.00
2023-01-01T19:14:19.071Z,13.47
2023-01-01T19:16:47.789Z,9.13
2023-01-01T19:19:16.532Z,10.83
2023-01-01T19:21:51.064Z,9.07
2023-01-01T19:24:29.836Z,6.75
2023-01-01T19:27:02.342Z,11.00
2023-01-01T19:29:30.830Z,10.88
2023-01-01T19:31:58.468Z,10.85
2023-01-01T19:34:25.852Z,5.85
2023-01-01T19:36:53.347Z,4.50
2023-01-01T19:39:20.391Z,6.63
2023-01-01T19:41:47.549Z,5.32
2023-01-01T19:44:17.413Z,4.90
2023-01-01T19:46:47.083Z,3.97
2023-01-01T19:49:14.195Z,2.50
2023-01-01T19:51:41.318Z,2.17
2023-01-01T19:54:08.374Z,4.53
2023-01-01T19:56:35.425Z,2.70
2023-01-01T19:59:02.497Z,3.88
2023-01-01T20:01:29.634Z,4.18
2023-01-01T20:03:59.673Z,2.92
2023-01-01T20:06:27.363Z,3.10
2023-01-01T20:08:54.814Z,3.60
2023-01-01T20:11:22.226Z,6.30
2023-01-01T20:13:49.328Z,3.08
2023-01-01T20:16:16.664Z,3.93
2023-01-01T20:18:43.823Z,8.55
2023-01-01T20:21:29.514Z,14.77
2023-01-01T20:23:56.572Z,8.45
2023-01-01T20:26:25.500Z,12.32
2023-01-01T20:29:11.096Z,18.35
2023-01-01T20:31:38.472Z,22.55
2023-01-01T20:34:05.651Z,16.90
2023-01-01T20:36:51.317Z,18.45
2023-01-01T20:39:18.425Z,21.95
2023-01-01T20:41:45.505Z,11.63
2023-01-01T20:44:12.573Z,11.23
2023-01-01T20:46:41.090Z,11.77
2023-01-01T20:49:08.637Z,12.82
2023-01-01T20:51:35.719Z,14.15
2023-01-01T20:54:02.859Z,12.98
2023-01-01T20:56:30.078Z,9.48
2023-01-01T20:59:00.424Z,9.05
2023-01-01T21:01:35.075Z,9.07
2023-01-01T21:04:02.215Z,8.05
2023-01-01T21:06:29.326Z,7.03
2023-01-01T21:08:56.499Z,4.88
2023-01-01T21:11:23.584Z,4.97
2023-01-01T21:13:50.980Z,4.60
2023-01-01T21:16:21.124Z,4.45
2023-01-01T21:18:49.237Z,5.47
2023-01-01T21:21:25.333Z,9.43
2023-01-01T21:24:02.034Z,19.58
2023-01-01T21:26:35.634Z,12.32
2023-01-01T21:29:10.520Z,11.80
2023-01-01T21:31:40.419Z,8.38
2023-01-01T21:34:32.069Z,9.57
2023-01-01T21:37:13.367Z,12.55
2023-01-01T21:39:41.324Z,8.23
2023-01-01T21:42:28.679Z,11.55
2023-01-01T21:44:57.596Z,10.07
2023-01-01T21:47:25.943Z,12.57
2023-01-01T21:49:55.568Z,10.65
2023-01-01T21:52:25.599Z,7.47
2023-01-01T21:54:53.221Z,15.15
2023-01-01T21:57:24.499Z,9.20
2023-01-01T21:59:54.060Z,5.45
2023-01-01T22:02:39.836Z,7.45
2023-01-01T22:05:30.115Z,4.63
2023-01-01T22:07:59.170Z,3.37
2023-01-01T22:10:34.216Z,9.65
2023-01-01T22:13:01.792Z,20.20
2023-01-01T22:15:38.823Z,18.10
2023-01-01T22:18:11.730Z,14.57
2023-01-01T22:20:40.548Z,23.05
2023-01-01T22:23:23.649Z,31.08
2023-01-01T22:25:51.406Z,38.20
2023-01-01T22:28:27.152Z,38.72
2023-01-01T22:30:59.432Z,31.88
2023-01-01T22:33:39.142Z,38.70
2023-01-01T22:36:23.024Z,35.97
2023-01-01T22:38:51.972Z,33.20
2023-01-01T22:41:19.021Z,31.45
2023-01-01T22:43:48.070Z,45.05
2023-01-01T22:46:21.223Z,30.92
2023-01-01T22:48:54.230Z,28.73
2023-01-01T22:51:28.398Z,25.30
2023-01-01T22:53:55.471Z,25.90
2023-01-01T22:56:22.602Z,21.40
2023-01-01T22:58:56.611Z,22.85
2023-01-01T23:01:24.363Z,13.45
2023-01-01T23:03:51.595Z,24.03
2023-01-01T23:06:19.425Z,20.02
2023-01-01T23:08:46.917Z,17.40
2023-01-01T23:11:14.006Z,18.95
2023-01-01T23:13:59.752Z,23.48
2023-01-01T23:16:26.929Z,15.77
2023-01-01T23:18:54.153Z,22.98
2023-01-01T23:21:27.030Z,19.17
2023-01-01T23:23:57.216Z,21.83
2023-01-01T23:26:25.344Z,23.80
2023-01-01T23:28:54.186Z,28.00
2023-01-01T23:31:25.602Z,21.23
2023-01-01T23:33:55.793Z,14.50
2023-01-01T23:36:24.621Z,13.88
2023-01-01T23:38:52.018Z,15.20
2023-01-01T23:41:19.177Z,9.98
2023-01-01T23:43:46.243Z,7.20
2023-01-01T23:46:13.930Z,19.30
2023-01-01T23:48:43.214Z,13.13
2023-01-01T23:51:10.783Z,12.95
2023-01-01T23:53:37.819Z,12.17
2023-01-01T23:56:05.193Z,14.40
2023-01-01T23:58:32.253Z,22.20
